Skye — WDG4178 — position and weather

sailwx.info

Track history (hours):
 
Tides and Currents Weather Stations Pressure Air Temp Water Temp Dewpoint Dewpoint Depression Visibility Wind Speed Wind Dir Waves Ship Positions

Skye

Owner: Worthington, Ralph, New York, NY. More information available from US FCC via Universal Licensing System and Coast Guard Vessel Documentation Center.

Last reported at 2014-Oct-28 07:15 UTC. Time now 2014-Dec-19 18:14 UTC.
Position N 37°22' W 000°44'.
Warning: this ship's position is 52 days out of date.

Length 13 m.

Type: Sailing vessel. MMSI: 367533820.

Date/timePositionNaut miles runAvg speedWind from/ knotsBaromVisibWave heightAir tempDewpointWater temp
2014-Oct-28 07:15N 37°22' W 000°44'136 6.0
2014-Oct-27 08:31N 38°53' E 001°25'5 0.2
2014-Oct-26 08:04N 38°55' E 001°31'3 6.3
2014-Oct-26 07:32N 38°57' E 001°35'8 6.5
2014-Oct-26 06:16N 39°04' E 001°41'5 6.4
2014-Oct-26 05:32N 39°08' E 001°44'6 6.4
2014-Oct-26 04:32N 39°14' E 001°48'6 5.7
2014-Oct-26 03:33N 39°18' E 001°52'14 6.7
2014-Oct-26 01:25N 39°31' E 001°60'13 6.8
2014-Oct-25 23:30N 39°44' E 002°03'6 6.6
2014-Oct-25 22:33N 39°50' E 002°04'7 6.9
2014-Oct-25 21:31N 39°57' E 002°05'5 5.7
2014-Oct-25 20:33N 40°03' E 002°05'6 5.7
2014-Oct-25 19:33N 40°08' E 002°04'7 7.2
2014-Oct-25 18:33N 40°15' E 002°03'  
Track history (hours):
 
Tides and Currents Weather Stations Pressure Air Temp Water Temp Dewpoint Dewpoint Depression Visibility Wind Speed Wind Dir Waves Ship Positions

Skye

Owner: Worthington, Ralph, New York, NY. More information available from US FCC via Universal Licensing System and Coast Guard Vessel Documentation Center.

Last reported at 2014-Oct-28 07:15 UTC. Time now 2014-Dec-19 18:14 UTC.
Position N 37°22' W 000°44'.
Warning: this ship's position is 52 days out of date.

Length 13 m.

Type: Sailing vessel. MMSI: 367533820.

Date/timePositionNaut miles runAvg speedWind from/ knotsBaromVisibWave heightAir tempDewpointWater temp
2014-Oct-28 07:15N 37°22' W 000°44'136 6.0
2014-Oct-27 08:31N 38°53' E 001°25'5 0.2
2014-Oct-26 08:04N 38°55' E 001°31'3 6.3
2014-Oct-26 07:32N 38°57' E 001°35'8 6.5
2014-Oct-26 06:16N 39°04' E 001°41'5 6.4
2014-Oct-26 05:32N 39°08' E 001°44'6 6.4
2014-Oct-26 04:32N 39°14' E 001°48'6 5.7
2014-Oct-26 03:33N 39°18' E 001°52'14 6.7
2014-Oct-26 01:25N 39°31' E 001°60'13 6.8
2014-Oct-25 23:30N 39°44' E 002°03'6 6.6
2014-Oct-25 22:33N 39°50' E 002°04'7 6.9
2014-Oct-25 21:31N 39°57' E 002°05'5 5.7
2014-Oct-25 20:33N 40°03' E 002°05'6 5.7
2014-Oct-25 19:33N 40°08' E 002°04'7 7.2
2014-Oct-25 18:33N 40°15' E 002°03'  

Dump ship's entire track history